Terminal Aerodrome Forecast
Issued by NWS

Home | Current Version | Previous Version | Text Only | Print | Product List | Glossary On
Versions: 1 2 3 4 5 6 7 8 9 10 11
000
FTUS46 KHNX 131720
TAFFAT
TAF
KFAT 131720Z 1318/1418 VRB02KT 4SM HZ SKC
     FM132100 VRB04KT 6SM HZ SKC
     FM140900 VRB03KT 4SM HZ SKC
      TEMPO 1413/1417 3SM BR SKC=

USA.gov is the U.S. government's official web portal to all federal, state and local government web resources and services.